sensor_id;sensor_type;location;lat;lon;timestamp;P1;durP1;ratioP1;P2;durP2;ratioP2
20000;SDS011;10161;41.188;-8.642;2023-06-14T00:00:45;5.60;;;3.10;;
20000;SDS011;10161;41.188;-8.642;2023-06-14T00:03:13;4.67;;;3.50;;
20000;SDS011;10161;41.188;-8.642;2023-06-14T00:05:43;5.63;;;3.20;;
20000;SDS011;10161;41.188;-8.642;2023-06-14T00:08:11;4.60;;;3.60;;
20000;SDS011;10161;41.188;-8.642;2023-06-14T00:10:40;6.13;;;3.23;;
20000;SDS011;10161;41.188;-8.642;2023-06-14T00:13:07;5.40;;;3.53;;
20000;SDS011;10161;41.188;-8.642;2023-06-14T00:15:35;3.43;;;3.13;;
20000;SDS011;10161;41.188;-8.642;2023-06-14T00:18:02;4.63;;;3.03;;
20000;SDS011;10161;41.188;-8.642;2023-06-14T00:20:31;4.50;;;3.30;;
20000;SDS011;10161;41.188;-8.642;2023-06-14T00:22:59;8.50;;;3.47;;
20000;SDS011;10161;41.188;-8.642;2023-06-14T00:25:27;4.90;;;3.33;;
20000;SDS011;10161;41.188;-8.642;2023-06-14T00:27:56;8.07;;;3.93;;
20000;SDS011;10161;41.188;-8.642;2023-06-14T00:30:24;5.37;;;3.53;;
20000;SDS011;10161;41.188;-8.642;2023-06-14T00:32:57;5.40;;;3.37;;
20000;SDS011;10161;41.188;-8.642;2023-06-14T00:35:25;5.23;;;3.03;;
20000;SDS011;10161;41.188;-8.642;2023-06-14T00:37:53;5.43;;;3.00;;
20000;SDS011;10161;41.188;-8.642;2023-06-14T00:40:20;6.60;;;3.30;;
20000;SDS011;10161;41.188;-8.642;2023-06-14T00:42:48;5.53;;;3.17;;
20000;SDS011;10161;41.188;-8.642;2023-06-14T00:45:17;7.83;;;3.13;;
20000;SDS011;10161;41.188;-8.642;2023-06-14T00:47:45;4.90;;;3.40;;
20000;SDS011;10161;41.188;-8.642;2023-06-14T00:50:13;7.07;;;3.27;;
20000;SDS011;10161;41.188;-8.642;2023-06-14T00:52:40;7.83;;;3.47;;
20000;SDS011;10161;41.188;-8.642;2023-06-14T00:55:07;6.83;;;3.60;;
20000;SDS011;10161;41.188;-8.642;2023-06-14T00:57:35;4.83;;;3.27;;
20000;SDS011;10161;41.188;-8.642;2023-06-14T01:00:05;4.10;;;3.27;;
20000;SDS011;10161;41.188;-8.642;2023-06-14T01:02:36;3.70;;;3.27;;
20000;SDS011;10161;41.188;-8.642;2023-06-14T01:05:03;5.23;;;2.73;;
20000;SDS011;10161;41.188;-8.642;2023-06-14T01:07:34;4.40;;;3.10;;
20000;SDS011;10161;41.188;-8.642;2023-06-14T01:10:09;6.80;;;4.00;;
20000;SDS011;10161;41.188;-8.642;2023-06-14T01:12:47;8.90;;;3.80;;
20000;SDS011;10161;41.188;-8.642;2023-06-14T01:15:19;5.90;;;3.50;;
20000;SDS011;10161;41.188;-8.642;2023-06-14T01:17:50;7.83;;;4.10;;
20000;SDS011;10161;41.188;-8.642;2023-06-14T01:20:19;6.27;;;3.63;;
20000;SDS011;10161;41.188;-8.642;2023-06-14T01:22:52;4.37;;;3.30;;
20000;SDS011;10161;41.188;-8.642;2023-06-14T01:25:21;5.23;;;3.13;;
20000;SDS011;10161;41.188;-8.642;2023-06-14T01:27:50;5.20;;;3.47;;
20000;SDS011;10161;41.188;-8.642;2023-06-14T01:30:18;3.30;;;3.00;;
20000;SDS011;10161;41.188;-8.642;2023-06-14T01:32:45;6.23;;;2.60;;
20000;SDS011;10161;41.188;-8.642;2023-06-14T01:35:13;9.13;;;4.27;;
20000;SDS011;10161;41.188;-8.642;2023-06-14T01:37:40;7.40;;;4.27;;
20000;SDS011;10161;41.188;-8.642;2023-06-14T01:40:14;9.17;;;4.23;;
20000;SDS011;10161;41.188;-8.642;2023-06-14T01:42:41;4.47;;;3.50;;
20000;SDS011;10161;41.188;-8.642;2023-06-14T01:45:09;4.90;;;3.30;;
20000;SDS011;10161;41.188;-8.642;2023-06-14T01:47:37;5.60;;;3.70;;
20000;SDS011;10161;41.188;-8.642;2023-06-14T01:50:04;8.20;;;3.83;;
20000;SDS011;10161;41.188;-8.642;2023-06-14T01:52:33;7.90;;;4.33;;
20000;SDS011;10161;41.188;-8.642;2023-06-14T01:55:00;5.17;;;3.60;;
20000;SDS011;10161;41.188;-8.642;2023-06-14T01:57:30;8.20;;;5.00;;
20000;SDS011;10161;41.188;-8.642;2023-06-14T01:59:57;6.47;;;5.00;;
20000;SDS011;10161;41.188;-8.642;2023-06-14T02:02:25;8.17;;;5.27;;
20000;SDS011;10161;41.188;-8.642;2023-06-14T02:04:52;9.03;;;4.50;;
20000;SDS011;10161;41.188;-8.642;2023-06-14T02:07:22;6.77;;;5.50;;
20000;SDS011;10161;41.188;-8.642;2023-06-14T02:09:49;6.60;;;4.63;;
20000;SDS011;10161;41.188;-8.642;2023-06-14T02:12:20;6.73;;;5.23;;
20000;SDS011;10161;41.188;-8.642;2023-06-14T02:14:49;7.23;;;5.40;;
20000;SDS011;10161;41.188;-8.642;2023-06-14T02:17:16;11.10;;;6.53;;
20000;SDS011;10161;41.188;-8.642;2023-06-14T02:19:43;8.60;;;4.70;;
20000;SDS011;10161;41.188;-8.642;2023-06-14T02:22:11;7.33;;;4.40;;
20000;SDS011;10161;41.188;-8.642;2023-06-14T02:24:40;5.03;;;4.53;;
20000;SDS011;10161;41.188;-8.642;2023-06-14T02:27:08;6.17;;;5.27;;
20000;SDS011;10161;41.188;-8.642;2023-06-14T02:29:35;5.27;;;4.30;;
20000;SDS011;10161;41.188;-8.642;2023-06-14T02:32:05;6.33;;;4.20;;
20000;SDS011;10161;41.188;-8.642;2023-06-14T02:34:34;5.67;;;4.03;;
20000;SDS011;10161;41.188;-8.642;2023-06-14T02:37:02;5.17;;;4.07;;
20000;SDS011;10161;41.188;-8.642;2023-06-14T02:39:30;5.00;;;3.83;;
20000;SDS011;10161;41.188;-8.642;2023-06-14T02:41:58;10.57;;;4.97;;
20000;SDS011;10161;41.188;-8.642;2023-06-14T02:44:25;10.00;;;4.87;;
20000;SDS011;10161;41.188;-8.642;2023-06-14T02:46:52;7.20;;;4.20;;
20000;SDS011;10161;41.188;-8.642;2023-06-14T02:49:22;9.50;;;5.20;;
20000;SDS011;10161;41.188;-8.642;2023-06-14T02:51:49;7.23;;;4.90;;
20000;SDS011;10161;41.188;-8.642;2023-06-14T02:54:17;6.03;;;4.60;;
20000;SDS011;10161;41.188;-8.642;2023-06-14T02:56:45;5.87;;;4.20;;
20000;SDS011;10161;41.188;-8.642;2023-06-14T02:59:12;5.87;;;4.20;;
20000;SDS011;10161;41.188;-8.642;2023-06-14T03:01:40;11.07;;;4.10;;
20000;SDS011;10161;41.188;-8.642;2023-06-14T03:04:12;6.20;;;4.20;;
20000;SDS011;10161;41.188;-8.642;2023-06-14T03:06:43;6.47;;;3.90;;
20000;SDS011;10161;41.188;-8.642;2023-06-14T03:09:15;6.13;;;4.97;;
20000;SDS011;10161;41.188;-8.642;2023-06-14T03:11:42;8.50;;;4.67;;
20000;SDS011;10161;41.188;-8.642;2023-06-14T03:14:09;8.57;;;5.07;;
20000;SDS011;10161;41.188;-8.642;2023-06-14T03:16:38;5.70;;;4.90;;
20000;SDS011;10161;41.188;-8.642;2023-06-14T03:19:06;5.23;;;4.40;;
20000;SDS011;10161;41.188;-8.642;2023-06-14T03:21:33;4.87;;;4.03;;
20000;SDS011;10161;41.188;-8.642;2023-06-14T03:24:04;5.00;;;3.93;;
20000;SDS011;10161;41.188;-8.642;2023-06-14T03:26:32;5.90;;;4.43;;
20000;SDS011;10161;41.188;-8.642;2023-06-14T03:29:02;6.00;;;4.60;;
20000;SDS011;10161;41.188;-8.642;2023-06-14T03:31:29;5.73;;;4.07;;
20000;SDS011;10161;41.188;-8.642;2023-06-14T03:33:57;5.80;;;4.33;;
20000;SDS011;10161;41.188;-8.642;2023-06-14T03:36:24;6.13;;;3.60;;
20000;SDS011;10161;41.188;-8.642;2023-06-14T03:38:53;5.50;;;3.50;;
20000;SDS011;10161;41.188;-8.642;2023-06-14T03:41:21;6.10;;;3.73;;
20000;SDS011;10161;41.188;-8.642;2023-06-14T03:43:49;4.10;;;3.50;;
20000;SDS011;10161;41.188;-8.642;2023-06-14T03:46:16;4.43;;;3.90;;
20000;SDS011;10161;41.188;-8.642;2023-06-14T03:48:43;7.67;;;4.20;;
20000;SDS011;10161;41.188;-8.642;2023-06-14T03:51:10;4.03;;;3.50;;
20000;SDS011;10161;41.188;-8.642;2023-06-14T03:53:39;9.80;;;4.90;;
20000;SDS011;10161;41.188;-8.642;2023-06-14T03:56:05;4.27;;;3.77;;
20000;SDS011;10161;41.188;-8.642;2023-06-14T03:58:36;5.43;;;4.00;;
20000;SDS011;10161;41.188;-8.642;2023-06-14T04:01:05;5.03;;;4.40;;
20000;SDS011;10161;41.188;-8.642;2023-06-14T04:03:33;6.53;;;4.43;;
20000;SDS011;10161;41.188;-8.642;2023-06-14T04:06:00;9.60;;;4.27;;
20000;SDS011;10161;41.188;-8.642;2023-06-14T04:08:27;6.20;;;4.30;;
20000;SDS011;10161;41.188;-8.642;2023-06-14T04:10:54;4.80;;;4.23;;
20000;SDS011;10161;41.188;-8.642;2023-06-14T04:13:21;5.90;;;4.60;;
20000;SDS011;10161;41.188;-8.642;2023-06-14T04:15:53;4.03;;;3.60;;
20000;SDS011;10161;41.188;-8.642;2023-06-14T04:18:22;5.27;;;3.90;;
20000;SDS011;10161;41.188;-8.642;2023-06-14T04:20:49;4.00;;;3.60;;
20000;SDS011;10161;41.188;-8.642;2023-06-14T04:23:16;8.00;;;4.00;;
20000;SDS011;10161;41.188;-8.642;2023-06-14T04:25:44;5.43;;;4.00;;
20000;SDS011;10161;41.188;-8.642;2023-06-14T04:28:12;8.67;;;5.00;;
20000;SDS011;10161;41.188;-8.642;2023-06-14T04:30:40;5.10;;;4.10;;
20000;SDS011;10161;41.188;-8.642;2023-06-14T04:33:09;4.00;;;3.60;;
20000;SDS011;10161;41.188;-8.642;2023-06-14T04:35:35;6.50;;;4.20;;
20000;SDS011;10161;41.188;-8.642;2023-06-14T04:38:04;4.90;;;4.10;;
20000;SDS011;10161;41.188;-8.642;2023-06-14T04:40:34;5.83;;;4.60;;
20000;SDS011;10161;41.188;-8.642;2023-06-14T04:43:07;6.47;;;4.57;;
20000;SDS011;10161;41.188;-8.642;2023-06-14T04:45:37;9.30;;;5.47;;
20000;SDS011;10161;41.188;-8.642;2023-06-14T04:48:06;7.57;;;5.10;;
20000;SDS011;10161;41.188;-8.642;2023-06-14T04:50:35;8.63;;;5.43;;
20000;SDS011;10161;41.188;-8.642;2023-06-14T04:53:05;7.80;;;4.30;;
20000;SDS011;10161;41.188;-8.642;2023-06-14T04:55:32;5.83;;;4.70;;
20000;SDS011;10161;41.188;-8.642;2023-06-14T04:58:01;5.67;;;4.30;;
20000;SDS011;10161;41.188;-8.642;2023-06-14T05:00:28;4.83;;;4.43;;
20000;SDS011;10161;41.188;-8.642;2023-06-14T05:02:55;6.00;;;4.57;;
20000;SDS011;10161;41.188;-8.642;2023-06-14T05:05:26;8.27;;;5.67;;
20000;SDS011;10161;41.188;-8.642;2023-06-14T05:07:53;6.77;;;5.30;;
20000;SDS011;10161;41.188;-8.642;2023-06-14T05:10:20;6.40;;;4.97;;
20000;SDS011;10161;41.188;-8.642;2023-06-14T05:12:48;7.70;;;6.90;;
20000;SDS011;10161;41.188;-8.642;2023-06-14T05:15:15;6.77;;;6.07;;
20000;SDS011;10161;41.188;-8.642;2023-06-14T05:17:42;12.03;;;6.67;;
20000;SDS011;10161;41.188;-8.642;2023-06-14T05:20:10;10.33;;;6.63;;
20000;SDS011;10161;41.188;-8.642;2023-06-14T05:22:39;8.57;;;5.20;;
20000;SDS011;10161;41.188;-8.642;2023-06-14T05:25:07;9.00;;;5.10;;
20000;SDS011;10161;41.188;-8.642;2023-06-14T05:27:35;6.60;;;5.00;;
20000;SDS011;10161;41.188;-8.642;2023-06-14T05:30:03;7.33;;;5.63;;
20000;SDS011;10161;41.188;-8.642;2023-06-14T05:32:32;6.40;;;5.27;;
20000;SDS011;10161;41.188;-8.642;2023-06-14T05:34:59;6.07;;;5.47;;
20000;SDS011;10161;41.188;-8.642;2023-06-14T05:37:27;6.47;;;5.03;;
20000;SDS011;10161;41.188;-8.642;2023-06-14T05:39:57;4.57;;;4.17;;
20000;SDS011;10161;41.188;-8.642;2023-06-14T05:42:24;5.90;;;4.53;;
20000;SDS011;10161;41.188;-8.642;2023-06-14T05:44:55;5.80;;;4.53;;
20000;SDS011;10161;41.188;-8.642;2023-06-14T05:47:22;5.37;;;4.83;;
20000;SDS011;10161;41.188;-8.642;2023-06-14T05:49:50;5.90;;;4.30;;
20000;SDS011;10161;41.188;-8.642;2023-06-14T05:52:19;7.53;;;5.27;;
20000;SDS011;10161;41.188;-8.642;2023-06-14T05:54:46;6.57;;;5.47;;
20000;SDS011;10161;41.188;-8.642;2023-06-14T05:57:15;7.30;;;4.83;;
20000;SDS011;10161;41.188;-8.642;2023-06-14T05:59:42;5.27;;;4.83;;
20000;SDS011;10161;41.188;-8.642;2023-06-14T06:02:15;5.73;;;5.20;;
20000;SDS011;10161;41.188;-8.642;2023-06-14T06:04:43;5.70;;;4.93;;
20000;SDS011;10161;41.188;-8.642;2023-06-14T06:07:12;7.40;;;5.60;;
20000;SDS011;10161;41.188;-8.642;2023-06-14T06:09:39;6.10;;;4.80;;
20000;SDS011;10161;41.188;-8.642;2023-06-14T06:12:07;6.90;;;5.23;;
20000;SDS011;10161;41.188;-8.642;2023-06-14T06:14:36;5.40;;;4.93;;
20000;SDS011;10161;41.188;-8.642;2023-06-14T06:17:04;5.63;;;4.80;;
20000;SDS011;10161;41.188;-8.642;2023-06-14T06:19:32;4.93;;;4.53;;
20000;SDS011;10161;41.188;-8.642;2023-06-14T06:22:00;4.90;;;4.33;;
20000;SDS011;10161;41.188;-8.642;2023-06-14T06:24:30;5.83;;;4.90;;
20000;SDS011;10161;41.188;-8.642;2023-06-14T06:26:58;6.40;;;4.90;;
20000;SDS011;10161;41.188;-8.642;2023-06-14T06:29:27;8.07;;;5.97;;
20000;SDS011;10161;41.188;-8.642;2023-06-14T06:31:56;7.73;;;5.40;;
20000;SDS011;10161;41.188;-8.642;2023-06-14T06:34:23;9.77;;;6.73;;
20000;SDS011;10161;41.188;-8.642;2023-06-14T06:36:50;7.40;;;5.60;;
20000;SDS011;10161;41.188;-8.642;2023-06-14T06:39:17;5.20;;;4.80;;
20000;SDS011;10161;41.188;-8.642;2023-06-14T06:41:44;6.30;;;5.27;;
20000;SDS011;10161;41.188;-8.642;2023-06-14T06:44:11;7.83;;;6.00;;
20000;SDS011;10161;41.188;-8.642;2023-06-14T06:46:39;8.30;;;6.37;;
20000;SDS011;10161;41.188;-8.642;2023-06-14T06:49:09;8.00;;;6.10;;
20000;SDS011;10161;41.188;-8.642;2023-06-14T06:51:37;8.63;;;6.07;;
20000;SDS011;10161;41.188;-8.642;2023-06-14T06:54:04;6.77;;;5.63;;
20000;SDS011;10161;41.188;-8.642;2023-06-14T06:56:33;9.80;;;5.97;;
20000;SDS011;10161;41.188;-8.642;2023-06-14T06:59:01;5.83;;;5.23;;
20000;SDS011;10161;41.188;-8.642;2023-06-14T07:01:29;8.27;;;5.30;;
20000;SDS011;10161;41.188;-8.642;2023-06-14T07:03:58;11.70;;;6.37;;
20000;SDS011;10161;41.188;-8.642;2023-06-14T07:06:29;7.13;;;5.30;;
20000;SDS011;10161;41.188;-8.642;2023-06-14T07:08:57;7.27;;;6.50;;
20000;SDS011;10161;41.188;-8.642;2023-06-14T07:11:26;7.93;;;5.97;;
20000;SDS011;10161;41.188;-8.642;2023-06-14T07:13:53;7.23;;;6.40;;
20000;SDS011;10161;41.188;-8.642;2023-06-14T07:16:20;7.73;;;5.50;;
20000;SDS011;10161;41.188;-8.642;2023-06-14T07:18:47;7.03;;;6.03;;
20000;SDS011;10161;41.188;-8.642;2023-06-14T07:21:15;9.37;;;6.07;;
20000;SDS011;10161;41.188;-8.642;2023-06-14T07:23:44;7.77;;;5.60;;
20000;SDS011;10161;41.188;-8.642;2023-06-14T07:26:11;6.80;;;6.20;;
20000;SDS011;10161;41.188;-8.642;2023-06-14T07:28:38;8.47;;;6.30;;
20000;SDS011;10161;41.188;-8.642;2023-06-14T07:31:05;7.23;;;5.77;;
20000;SDS011;10161;41.188;-8.642;2023-06-14T07:33:34;6.90;;;5.00;;
20000;SDS011;10161;41.188;-8.642;2023-06-14T07:36:01;5.10;;;4.60;;
20000;SDS011;10161;41.188;-8.642;2023-06-14T07:38:28;7.23;;;4.20;;
20000;SDS011;10161;41.188;-8.642;2023-06-14T07:40:56;5.27;;;4.77;;
20000;SDS011;10161;41.188;-8.642;2023-06-14T07:43:23;5.23;;;4.73;;
20000;SDS011;10161;41.188;-8.642;2023-06-14T07:45:52;8.03;;;4.73;;
20000;SDS011;10161;41.188;-8.642;2023-06-14T07:48:20;6.47;;;5.67;;
20000;SDS011;10161;41.188;-8.642;2023-06-14T07:50:47;6.40;;;5.90;;
20000;SDS011;10161;41.188;-8.642;2023-06-14T07:53:15;7.20;;;6.50;;
20000;SDS011;10161;41.188;-8.642;2023-06-14T07:55:42;6.37;;;5.77;;
20000;SDS011;10161;41.188;-8.642;2023-06-14T07:58:14;6.37;;;5.87;;
20000;SDS011;10161;41.188;-8.642;2023-06-14T08:00:42;6.33;;;5.73;;
20000;SDS011;10161;41.188;-8.642;2023-06-14T08:03:09;6.20;;;5.70;;
20000;SDS011;10161;41.188;-8.642;2023-06-14T08:05:36;6.87;;;6.20;;
20000;SDS011;10161;41.188;-8.642;2023-06-14T08:08:04;7.90;;;7.03;;
20000;SDS011;10161;41.188;-8.642;2023-06-14T08:10:32;9.10;;;8.30;;
20000;SDS011;10161;41.188;-8.642;2023-06-14T08:13:00;11.13;;;9.10;;
20000;SDS011;10161;41.188;-8.642;2023-06-14T08:15:31;12.37;;;10.10;;
20000;SDS011;10161;41.188;-8.642;2023-06-14T08:17:59;10.23;;;9.33;;
20000;SDS011;10161;41.188;-8.642;2023-06-14T08:20:26;10.97;;;9.97;;
20000;SDS011;10161;41.188;-8.642;2023-06-14T08:22:55;10.63;;;9.20;;
20000;SDS011;10161;41.188;-8.642;2023-06-14T08:25:22;10.30;;;9.20;;
20000;SDS011;10161;41.188;-8.642;2023-06-14T08:27:49;11.07;;;9.63;;
20000;SDS011;10161;41.188;-8.642;2023-06-14T08:30:16;10.73;;;9.73;;
20000;SDS011;10161;41.188;-8.642;2023-06-14T08:32:45;11.07;;;9.97;;
20000;SDS011;10161;41.188;-8.642;2023-06-14T08:35:14;10.80;;;9.70;;
20000;SDS011;10161;41.188;-8.642;2023-06-14T08:37:43;11.20;;;10.10;;
20000;SDS011;10161;41.188;-8.642;2023-06-14T08:40:14;10.70;;;9.60;;
20000;SDS011;10161;41.188;-8.642;2023-06-14T08:42:45;12.00;;;10.87;;
20000;SDS011;10161;41.188;-8.642;2023-06-14T08:45:15;9.20;;;8.40;;
20000;SDS011;10161;41.188;-8.642;2023-06-14T08:47:45;8.83;;;7.93;;
20000;SDS011;10161;41.188;-8.642;2023-06-14T08:50:17;7.33;;;6.53;;
20000;SDS011;10161;41.188;-8.642;2023-06-14T08:52:47;7.60;;;6.90;;
20000;SDS011;10161;41.188;-8.642;2023-06-14T08:55:16;8.00;;;7.20;;
20000;SDS011;10161;41.188;-8.642;2023-06-14T08:57:45;7.70;;;7.00;;
20000;SDS011;10161;41.188;-8.642;2023-06-14T09:00:17;7.97;;;7.23;;
20000;SDS011;10161;41.188;-8.642;2023-06-14T09:02:48;7.63;;;6.93;;
20000;SDS011;10161;41.188;-8.642;2023-06-14T09:05:22;6.90;;;6.10;;
20000;SDS011;10161;41.188;-8.642;2023-06-14T09:07:49;6.97;;;6.37;;
20000;SDS011;10161;41.188;-8.642;2023-06-14T09:10:18;7.73;;;6.40;;
20000;SDS011;10161;41.188;-8.642;2023-06-14T09:12:47;6.83;;;6.30;;
20000;SDS011;10161;41.188;-8.642;2023-06-14T09:15:14;6.50;;;5.90;;
20000;SDS011;10161;41.188;-8.642;2023-06-14T09:17:42;6.90;;;6.30;;
20000;SDS011;10161;41.188;-8.642;2023-06-14T09:20:11;6.73;;;6.13;;
20000;SDS011;10161;41.188;-8.642;2023-06-14T09:22:43;7.63;;;6.87;;
20000;SDS011;10161;41.188;-8.642;2023-06-14T09:25:11;6.10;;;5.50;;
20000;SDS011;10161;41.188;-8.642;2023-06-14T09:27:40;5.57;;;5.17;;
20000;SDS011;10161;41.188;-8.642;2023-06-14T09:30:09;6.07;;;5.47;;
20000;SDS011;10161;41.188;-8.642;2023-06-14T09:32:37;6.30;;;5.60;;
20000;SDS011;10161;41.188;-8.642;2023-06-14T09:35:11;5.40;;;4.90;;
20000;SDS011;10161;41.188;-8.642;2023-06-14T09:37:37;5.73;;;5.13;;
20000;SDS011;10161;41.188;-8.642;2023-06-14T09:40:05;4.77;;;4.40;;
20000;SDS011;10161;41.188;-8.642;2023-06-14T09:42:33;5.73;;;5.23;;
20000;SDS011;10161;41.188;-8.642;2023-06-14T09:45:02;5.23;;;4.73;;
20000;SDS011;10161;41.188;-8.642;2023-06-14T09:47:30;6.07;;;5.47;;
20000;SDS011;10161;41.188;-8.642;2023-06-14T09:49:57;6.37;;;5.20;;
20000;SDS011;10161;41.188;-8.642;2023-06-14T09:52:27;5.37;;;4.90;;
20000;SDS011;10161;41.188;-8.642;2023-06-14T09:54:55;5.70;;;5.00;;
20000;SDS011;10161;41.188;-8.642;2023-06-14T09:57:23;5.83;;;5.30;;
20000;SDS011;10161;41.188;-8.642;2023-06-14T09:59:53;6.20;;;5.70;;
20000;SDS011;10161;41.188;-8.642;2023-06-14T10:02:25;5.80;;;5.23;;
20000;SDS011;10161;41.188;-8.642;2023-06-14T10:05:03;5.90;;;5.40;;
20000;SDS011;10161;41.188;-8.642;2023-06-14T10:07:38;5.50;;;5.00;;
20000;SDS011;10161;41.188;-8.642;2023-06-14T10:10:07;5.10;;;4.57;;
20000;SDS011;10161;41.188;-8.642;2023-06-14T10:12:36;4.73;;;4.23;;
20000;SDS011;10161;41.188;-8.642;2023-06-14T10:15:05;5.33;;;4.83;;
20000;SDS011;10161;41.188;-8.642;2023-06-14T10:17:35;5.60;;;5.10;;
20000;SDS011;10161;41.188;-8.642;2023-06-14T10:20:18;6.00;;;5.40;;
20000;SDS011;10161;41.188;-8.642;2023-06-14T10:22:53;6.40;;;5.90;;
20000;SDS011;10161;41.188;-8.642;2023-06-14T10:25:27;5.80;;;5.30;;
20000;SDS011;10161;41.188;-8.642;2023-06-14T10:28:14;6.23;;;5.63;;
20000;SDS011;10161;41.188;-8.642;2023-06-14T10:33:48;7.23;;;6.53;;
20000;SDS011;10161;41.188;-8.642;2023-06-14T10:36:27;7.97;;;5.87;;
20000;SDS011;10161;41.188;-8.642;2023-06-14T10:39:01;7.00;;;6.30;;
20000;SDS011;10161;41.188;-8.642;2023-06-14T10:41:31;11.53;;;8.20;;
20000;SDS011;10161;41.188;-8.642;2023-06-14T10:47:06;7.07;;;6.33;;
20000;SDS011;10161;41.188;-8.642;2023-06-14T10:49:38;8.10;;;6.27;;
20000;SDS011;10161;41.188;-8.642;2023-06-14T10:52:11;7.50;;;6.10;;
20000;SDS011;10161;41.188;-8.642;2023-06-14T10:55:02;6.67;;;6.00;;
20000;SDS011;10161;41.188;-8.642;2023-06-14T10:57:31;8.30;;;6.93;;
20000;SDS011;10161;41.188;-8.642;2023-06-14T10:59:59;7.27;;;6.57;;
20000;SDS011;10161;41.188;-8.642;2023-06-14T11:02:45;6.87;;;6.20;;
20000;SDS011;10161;41.188;-8.642;2023-06-14T11:05:30;6.53;;;5.87;;
20000;SDS011;10161;41.188;-8.642;2023-06-14T11:08:12;6.90;;;6.17;;
20000;SDS011;10161;41.188;-8.642;2023-06-14T11:11:01;6.80;;;5.67;;
20000;SDS011;10161;41.188;-8.642;2023-06-14T11:13:32;7.80;;;6.00;;
20000;SDS011;10161;41.188;-8.642;2023-06-14T11:16:00;8.40;;;5.83;;
20000;SDS011;10161;41.188;-8.642;2023-06-14T11:18:28;8.10;;;5.97;;
20000;SDS011;10161;41.188;-8.642;2023-06-14T11:20:56;6.57;;;5.97;;
20000;SDS011;10161;41.188;-8.642;2023-06-14T11:23:23;7.13;;;6.43;;
20000;SDS011;10161;41.188;-8.642;2023-06-14T11:25:52;11.47;;;7.67;;
20000;SDS011;10161;41.188;-8.642;2023-06-14T11:28:21;6.47;;;5.87;;
20000;SDS011;10161;41.188;-8.642;2023-06-14T11:30:49;6.23;;;5.60;;
20000;SDS011;10161;41.188;-8.642;2023-06-14T11:33:20;7.57;;;6.17;;
20000;SDS011;10161;41.188;-8.642;2023-06-14T11:35:47;6.47;;;5.90;;
20000;SDS011;10161;41.188;-8.642;2023-06-14T11:38:14;9.47;;;6.10;;
20000;SDS011;10161;41.188;-8.642;2023-06-14T11:40:47;9.83;;;6.30;;
20000;SDS011;10161;41.188;-8.642;2023-06-14T11:43:14;7.60;;;6.33;;
20000;SDS011;10161;41.188;-8.642;2023-06-14T11:45:46;6.83;;;5.67;;
20000;SDS011;10161;41.188;-8.642;2023-06-14T11:48:14;7.70;;;5.90;;
20000;SDS011;10161;41.188;-8.642;2023-06-14T11:50:41;6.17;;;5.57;;
20000;SDS011;10161;41.188;-8.642;2023-06-14T11:53:08;5.57;;;5.03;;
20000;SDS011;10161;41.188;-8.642;2023-06-14T11:55:37;8.50;;;6.37;;
20000;SDS011;10161;41.188;-8.642;2023-06-14T11:58:05;7.00;;;5.87;;
20000;SDS011;10161;41.188;-8.642;2023-06-14T12:00:35;6.67;;;6.03;;
20000;SDS011;10161;41.188;-8.642;2023-06-14T12:03:04;7.27;;;6.33;;
20000;SDS011;10161;41.188;-8.642;2023-06-14T12:05:33;6.90;;;6.10;;
20000;SDS011;10161;41.188;-8.642;2023-06-14T12:08:01;5.57;;;5.03;;
20000;SDS011;10161;41.188;-8.642;2023-06-14T12:10:39;6.10;;;4.93;;
20000;SDS011;10161;41.188;-8.642;2023-06-14T12:13:06;8.17;;;5.93;;
20000;SDS011;10161;41.188;-8.642;2023-06-14T12:15:34;7.33;;;5.97;;
20000;SDS011;10161;41.188;-8.642;2023-06-14T12:18:06;6.83;;;5.87;;
20000;SDS011;10161;41.188;-8.642;2023-06-14T12:20:34;8.10;;;5.73;;
20000;SDS011;10161;41.188;-8.642;2023-06-14T12:23:03;8.40;;;6.50;;
20000;SDS011;10161;41.188;-8.642;2023-06-14T12:25:32;7.33;;;6.53;;
20000;SDS011;10161;41.188;-8.642;2023-06-14T12:28:04;8.17;;;6.23;;
20000;SDS011;10161;41.188;-8.642;2023-06-14T12:30:32;6.80;;;5.53;;
20000;SDS011;10161;41.188;-8.642;2023-06-14T12:32:59;6.43;;;5.83;;
20000;SDS011;10161;41.188;-8.642;2023-06-14T12:35:27;5.67;;;5.17;;
20000;SDS011;10161;41.188;-8.642;2023-06-14T12:37:54;6.87;;;5.60;;
20000;SDS011;10161;41.188;-8.642;2023-06-14T12:40:22;6.57;;;5.97;;
20000;SDS011;10161;41.188;-8.642;2023-06-14T12:42:52;7.87;;;6.10;;
20000;SDS011;10161;41.188;-8.642;2023-06-14T12:45:19;6.30;;;5.20;;
20000;SDS011;10161;41.188;-8.642;2023-06-14T12:47:48;5.87;;;5.37;;
20000;SDS011;10161;41.188;-8.642;2023-06-14T12:50:15;6.83;;;6.20;;
20000;SDS011;10161;41.188;-8.642;2023-06-14T12:52:44;7.43;;;5.87;;
20000;SDS011;10161;41.188;-8.642;2023-06-14T12:55:11;6.53;;;5.93;;
20000;SDS011;10161;41.188;-8.642;2023-06-14T12:57:42;5.87;;;5.37;;
20000;SDS011;10161;41.188;-8.642;2023-06-14T13:00:09;6.20;;;5.60;;
20000;SDS011;10161;41.188;-8.642;2023-06-14T13:02:38;5.60;;;5.10;;
20000;SDS011;10161;41.188;-8.642;2023-06-14T13:05:05;5.37;;;4.87;;
20000;SDS011;10161;41.188;-8.642;2023-06-14T13:07:33;4.73;;;4.33;;
20000;SDS011;10161;41.188;-8.642;2023-06-14T13:10:03;9.63;;;5.47;;
20000;SDS011;10161;41.188;-8.642;2023-06-14T13:12:31;5.83;;;5.23;;
20000;SDS011;10161;41.188;-8.642;2023-06-14T13:14:58;6.90;;;5.00;;
20000;SDS011;10161;41.188;-8.642;2023-06-14T13:17:26;5.30;;;4.80;;
20000;SDS011;10161;41.188;-8.642;2023-06-14T13:19:53;5.50;;;4.90;;
20000;SDS011;10161;41.188;-8.642;2023-06-14T13:22:20;6.30;;;5.00;;
20000;SDS011;10161;41.188;-8.642;2023-06-14T13:24:48;6.77;;;5.57;;
20000;SDS011;10161;41.188;-8.642;2023-06-14T13:27:17;8.13;;;5.13;;
20000;SDS011;10161;41.188;-8.642;2023-06-14T13:29:44;6.17;;;5.20;;
20000;SDS011;10161;41.188;-8.642;2023-06-14T13:32:11;5.13;;;4.60;;
20000;SDS011;10161;41.188;-8.642;2023-06-14T13:34:39;5.27;;;4.63;;
20000;SDS011;10161;41.188;-8.642;2023-06-14T13:37:06;6.00;;;5.03;;
20000;SDS011;10161;41.188;-8.642;2023-06-14T13:39:33;6.00;;;4.97;;
20000;SDS011;10161;41.188;-8.642;2023-06-14T13:42:04;5.67;;;5.17;;
20000;SDS011;10161;41.188;-8.642;2023-06-14T13:44:33;6.23;;;5.63;;
20000;SDS011;10161;41.188;-8.642;2023-06-14T13:47:00;5.70;;;4.63;;
20000;SDS011;10161;41.188;-8.642;2023-06-14T13:49:31;7.00;;;5.20;;
20000;SDS011;10161;41.188;-8.642;2023-06-14T13:52:00;5.57;;;4.43;;
20000;SDS011;10161;41.188;-8.642;2023-06-14T13:54:28;5.23;;;4.63;;
20000;SDS011;10161;41.188;-8.642;2023-06-14T13:56:55;7.03;;;4.70;;
20000;SDS011;10161;41.188;-8.642;2023-06-14T13:59:22;5.90;;;4.43;;
20000;SDS011;10161;41.188;-8.642;2023-06-14T14:01:50;7.07;;;5.17;;
20000;SDS011;10161;41.188;-8.642;2023-06-14T14:04:18;5.73;;;5.13;;
20000;SDS011;10161;41.188;-8.642;2023-06-14T14:06:45;7.03;;;4.70;;
20000;SDS011;10161;41.188;-8.642;2023-06-14T14:09:12;9.73;;;5.53;;
20000;SDS011;10161;41.188;-8.642;2023-06-14T14:11:39;6.10;;;5.10;;
20000;SDS011;10161;41.188;-8.642;2023-06-14T14:14:07;7.70;;;5.70;;
20000;SDS011;10161;41.188;-8.642;2023-06-14T14:16:35;5.23;;;4.70;;
20000;SDS011;10161;41.188;-8.642;2023-06-14T14:19:06;5.57;;;5.07;;
20000;SDS011;10161;41.188;-8.642;2023-06-14T14:21:33;5.40;;;4.90;;
20000;SDS011;10161;41.188;-8.642;2023-06-14T14:24:03;6.43;;;5.73;;
20000;SDS011;10161;41.188;-8.642;2023-06-14T14:26:32;8.60;;;5.00;;
20000;SDS011;10161;41.188;-8.642;2023-06-14T14:28:59;6.13;;;5.53;;
20000;SDS011;10161;41.188;-8.642;2023-06-14T14:31:27;6.80;;;4.90;;
20000;SDS011;10161;41.188;-8.642;2023-06-14T14:33:54;5.00;;;4.60;;
20000;SDS011;10161;41.188;-8.642;2023-06-14T14:36:23;5.83;;;5.23;;
20000;SDS011;10161;41.188;-8.642;2023-06-14T14:38:50;5.70;;;5.10;;
20000;SDS011;10161;41.188;-8.642;2023-06-14T14:41:17;5.40;;;4.47;;
20000;SDS011;10161;41.188;-8.642;2023-06-14T14:43:45;5.20;;;4.70;;
20000;SDS011;10161;41.188;-8.642;2023-06-14T14:46:12;6.13;;;5.20;;
20000;SDS011;10161;41.188;-8.642;2023-06-14T14:48:46;4.97;;;4.57;;